createdAt,value
2018-12-19T00:01:58.375Z,69.36
2018-12-19T00:04:25.767Z,70.26
2018-12-19T00:06:53.443Z,70.43
2018-12-19T00:09:20.864Z,70.25
2018-12-19T00:11:48.272Z,70.46
2018-12-19T00:14:16.028Z,70.94
2018-12-19T00:16:44.346Z,70.67
2018-12-19T00:19:11.763Z,70.70
2018-12-19T00:21:39.424Z,70.79
2018-12-19T00:24:06.841Z,71.05
2018-12-19T00:26:34.236Z,71.20
2018-12-19T00:29:01.991Z,70.84
2018-12-19T00:31:29.411Z,70.66
2018-12-19T00:33:57.573Z,71.34
2018-12-19T00:36:25.187Z,70.82
2018-12-19T00:38:52.587Z,70.74
2018-12-19T00:41:20.016Z,70.18
2018-12-19T00:43:47.651Z,69.79
2018-12-19T00:46:15.061Z,69.83
2018-12-19T00:48:42.475Z,69.45
2018-12-19T00:51:10.047Z,69.04
2018-12-19T00:53:37.455Z,68.68
2018-12-19T00:56:04.936Z,68.95
2018-12-19T00:58:32.403Z,68.86
2018-12-19T01:00:59.816Z,69.00
2018-12-19T01:03:27.216Z,69.22
2018-12-19T01:05:54.688Z,69.12
2018-12-19T01:08:22.094Z,68.96
2018-12-19T01:10:49.498Z,69.02
2018-12-19T01:13:17.142Z,69.12
2018-12-19T01:15:44.594Z,69.25
2018-12-19T01:18:12.009Z,69.02
2018-12-19T01:20:39.616Z,69.05
2018-12-19T01:23:07.169Z,69.08
2018-12-19T01:25:34.570Z,69.19
2018-12-19T01:28:02.013Z,69.08
2018-12-19T01:30:30.284Z,68.70
2018-12-19T01:32:57.707Z,68.82
2018-12-19T01:35:25.270Z,68.77
2018-12-19T01:37:52.680Z,68.96
2018-12-19T01:40:20.098Z,68.87
2018-12-19T01:42:47.744Z,69.24
2018-12-19T01:45:15.184Z,69.26
2018-12-19T01:47:42.759Z,69.22
2018-12-19T01:50:10.520Z,69.45
2018-12-19T01:52:37.984Z,69.50
2018-12-19T01:55:05.524Z,69.63
2018-12-19T01:57:33.568Z,69.63
2018-12-19T02:00:01.076Z,69.84
2018-12-19T02:02:29.182Z,69.77
2018-12-19T02:04:56.809Z,70.07
2018-12-19T02:07:24.612Z,70.12
2018-12-19T02:09:52.021Z,70.18
2018-12-19T02:12:19.612Z,70.28
2018-12-19T02:14:47.728Z,70.28
2018-12-19T02:17:15.144Z,70.33
2018-12-19T02:19:42.868Z,69.96
2018-12-19T02:22:10.274Z,70.31
2018-12-19T02:24:38.375Z,70.06
2018-12-19T02:27:06.180Z,70.11
2018-12-19T02:29:33.596Z,70.04
2018-12-19T02:32:02.960Z,69.95
2018-12-19T02:34:30.687Z,69.75
2018-12-19T02:36:58.255Z,69.29
2018-12-19T02:39:26.251Z,68.88
2018-12-19T02:41:53.719Z,68.74
2018-12-19T02:44:21.108Z,68.72
2018-12-19T02:46:48.512Z,68.81
2018-12-19T02:49:16.049Z,68.84
2018-12-19T02:51:43.457Z,68.60
2018-12-19T02:54:10.956Z,68.91
2018-12-19T02:56:38.823Z,68.96
2018-12-19T02:59:06.238Z,68.80
2018-12-19T03:01:33.924Z,68.64
2018-12-19T03:04:01.400Z,68.69
2018-12-19T03:06:28.907Z,68.34
2018-12-19T03:08:57.001Z,68.53
2018-12-19T03:11:24.484Z,68.11
2018-12-19T03:13:52.751Z,68.39
2018-12-19T03:16:20.632Z,68.51
2018-12-19T03:18:48.065Z,68.55
2018-12-19T03:21:15.541Z,69.17
2018-12-19T03:23:43.027Z,69.21
2018-12-19T03:26:10.559Z,68.90
2018-12-19T03:28:37.969Z,68.89
2018-12-19T03:31:05.387Z,68.86
2018-12-19T03:33:33.136Z,68.84
2018-12-19T03:36:00.836Z,68.42
2018-12-19T03:38:28.245Z,67.84
2018-12-19T03:40:55.911Z,67.81
2018-12-19T03:43:23.339Z,67.66
2018-12-19T03:45:50.819Z,67.32
2018-12-19T03:48:24.127Z,67.36
2018-12-19T03:50:51.513Z,66.72
2018-12-19T03:53:18.915Z,66.40
2018-12-19T03:55:46.694Z,66.35
2018-12-19T03:58:14.580Z,66.34
2018-12-19T04:00:41.983Z,66.65
2018-12-19T04:03:09.452Z,67.10
2018-12-19T04:05:36.924Z,67.91
2018-12-19T04:08:04.340Z,68.53
2018-12-19T04:10:31.948Z,69.04
2018-12-19T04:12:59.396Z,69.69
2018-12-19T04:15:26.816Z,69.83
2018-12-19T04:17:54.274Z,69.88
2018-12-19T04:20:21.694Z,69.87
2018-12-19T04:22:49.204Z,69.79
2018-12-19T04:25:16.694Z,69.72
2018-12-19T04:27:44.189Z,69.49
2018-12-19T04:30:12.799Z,69.52
2018-12-19T04:32:40.904Z,69.57
2018-12-19T04:35:08.315Z,69.48
2018-12-19T04:37:35.719Z,69.37
2018-12-19T04:40:05.792Z,69.24
2018-12-19T04:42:33.879Z,69.20
2018-12-19T04:45:01.405Z,69.06
2018-12-19T04:47:29.023Z,69.28
2018-12-19T04:49:56.430Z,69.43
2018-12-19T04:52:24.321Z,69.34
2018-12-19T04:54:52.004Z,69.41
2018-12-19T04:57:19.466Z,69.06
2018-12-19T04:59:46.872Z,69.24
2018-12-19T05:02:14.637Z,69.18
2018-12-19T05:04:42.148Z,69.33
2018-12-19T05:07:09.857Z,69.54
2018-12-19T05:09:37.559Z,69.59
2018-12-19T05:12:05.239Z,69.34
2018-12-19T05:14:33.007Z,69.32
2018-12-19T05:17:00.551Z,69.09
2018-12-19T05:19:28.263Z,68.85
2018-12-19T05:21:55.663Z,68.50
2018-12-19T05:24:23.102Z,68.30
2018-12-19T05:26:51.429Z,68.08
2018-12-19T05:29:18.832Z,67.73
2018-12-19T05:31:46.415Z,67.52
2018-12-19T05:34:13.831Z,67.13
2018-12-19T05:36:41.339Z,67.19
2018-12-19T05:39:09.108Z,67.17
2018-12-19T05:41:37.452Z,67.23
2018-12-19T05:44:04.847Z,67.14
2018-12-19T05:46:32.662Z,66.77
2018-12-19T05:49:00.105Z,66.68
2018-12-19T05:51:27.507Z,66.73
2018-12-19T05:53:55.847Z,66.49
2018-12-19T05:56:23.252Z,66.12
2018-12-19T05:58:50.663Z,66.32
2018-12-19T06:01:18.264Z,66.15
2018-12-19T06:03:45.664Z,66.10
2018-12-19T06:06:13.067Z,65.57
2018-12-19T06:08:40.624Z,65.50
2018-12-19T06:11:08.023Z,65.92
2018-12-19T06:13:35.423Z,65.56
2018-12-19T06:16:02.947Z,65.94
2018-12-19T06:18:30.348Z,65.79
2018-12-19T06:20:58.640Z,65.50
2018-12-19T06:23:26.187Z,65.42
2018-12-19T06:25:53.600Z,65.35
2018-12-19T06:28:21.108Z,65.07
2018-12-19T06:30:48.668Z,64.94
2018-12-19T06:33:16.075Z,65.37
2018-12-19T06:35:44.443Z,65.44
2018-12-19T06:38:12.030Z,65.10
2018-12-19T06:40:39.427Z,65.40
2018-12-19T06:43:07.216Z,65.09
2018-12-19T06:45:34.964Z,65.22
2018-12-19T06:48:02.555Z,65.33
2018-12-19T06:50:30.055Z,65.27
2018-12-19T06:52:57.726Z,64.50
2018-12-19T06:55:25.304Z,65.21
2018-12-19T06:57:52.715Z,65.01
2018-12-19T07:00:20.393Z,65.26
2018-12-19T07:02:47.795Z,65.28
2018-12-19T07:05:15.214Z,65.33
2018-12-19T07:07:42.659Z,65.16
2018-12-19T07:10:10.065Z,64.67
2018-12-19T07:12:37.716Z,65.12
2018-12-19T07:15:05.399Z,65.17
2018-12-19T07:17:32.826Z,64.82
2018-12-19T07:20:00.228Z,65.14
2018-12-19T07:22:28.016Z,65.06
2018-12-19T07:24:56.023Z,65.24
2018-12-19T07:27:23.420Z,64.66
2018-12-19T07:29:51.216Z,65.11
2018-12-19T07:32:18.620Z,65.12
2018-12-19T07:34:46.704Z,65.34
2018-12-19T07:37:14.296Z,65.19
2018-12-19T07:39:42.748Z,65.25
2018-12-19T07:42:10.156Z,65.08
2018-12-19T07:44:37.804Z,65.22
2018-12-19T07:47:05.506Z,64.39
2018-12-19T07:49:32.934Z,64.66
2018-12-19T07:52:00.624Z,64.77
2018-12-19T07:54:28.022Z,64.59
2018-12-19T07:56:55.428Z,64.84
2018-12-19T07:59:22.948Z,64.29
2018-12-19T08:01:50.344Z,64.31
2018-12-19T08:04:18.112Z,64.66
2018-12-19T08:06:45.723Z,64.21
2018-12-19T08:09:13.134Z,64.56
2018-12-19T08:11:40.531Z,64.23
2018-12-19T08:14:08.204Z,63.62
2018-12-19T08:16:35.707Z,64.21
2018-12-19T08:19:03.179Z,64.20
2018-12-19T08:21:30.633Z,64.22
2018-12-19T08:23:58.761Z,63.96
2018-12-19T08:26:26.459Z,63.73
2018-12-19T08:28:53.913Z,63.54
2018-12-19T08:31:21.303Z,64.11
2018-12-19T08:33:48.707Z,64.02
2018-12-19T08:36:16.333Z,63.63
2018-12-19T08:38:44.462Z,63.75
2018-12-19T08:41:11.855Z,63.68
2018-12-19T08:43:39.428Z,63.58
2018-12-19T08:46:06.855Z,63.61
2018-12-19T08:48:34.254Z,63.54
2018-12-19T08:51:02.608Z,63.61
2018-12-19T08:53:30.064Z,63.54
2018-12-19T08:55:57.459Z,63.80
2018-12-19T08:58:25.084Z,63.77
2018-12-19T09:00:52.480Z,63.55
2018-12-19T09:03:20.355Z,63.68
2018-12-19T09:05:47.865Z,63.88
2018-12-19T09:08:15.262Z,63.21
2018-12-19T09:10:42.653Z,63.90
2018-12-19T09:13:10.242Z,63.48
2018-12-19T09:15:43.309Z,63.55
2018-12-19T09:18:10.783Z,63.24
2018-12-19T09:20:38.344Z,63.58
2018-12-19T09:23:05.748Z,63.71
2018-12-19T09:25:33.930Z,63.28
2018-12-19T09:28:02.344Z,63.82
2018-12-19T09:30:29.806Z,63.66
2018-12-19T09:32:57.811Z,63.40
2018-12-19T09:35:25.437Z,63.35
2018-12-19T09:37:52.860Z,63.77
2018-12-19T09:40:20.259Z,63.27
2018-12-19T09:42:48.071Z,63.18
2018-12-19T09:45:15.474Z,63.26
2018-12-19T09:47:42.863Z,63.67
2018-12-19T09:50:10.888Z,63.65
2018-12-19T09:52:39.210Z,63.53
2018-12-19T09:55:06.599Z,63.63
2018-12-19T09:57:34.286Z,63.30
2018-12-19T10:00:01.679Z,63.39
2018-12-19T10:02:29.072Z,63.35
2018-12-19T10:04:56.658Z,63.46
2018-12-19T10:07:24.114Z,62.88
2018-12-19T10:09:51.800Z,63.20
2018-12-19T10:12:19.539Z,63.41
2018-12-19T10:14:46.939Z,62.85
2018-12-19T10:17:14.360Z,63.09
2018-12-19T10:19:42.226Z,63.39
2018-12-19T10:22:09.674Z,63.24
2018-12-19T10:24:42.567Z,62.90
2018-12-19T10:27:12.034Z,62.76
2018-12-19T10:29:39.599Z,62.58
2018-12-19T10:32:07.291Z,62.69
2018-12-19T10:34:34.838Z,62.80
2018-12-19T10:37:02.997Z,62.88
2018-12-19T10:39:30.389Z,62.78
2018-12-19T10:41:57.931Z,62.77
2018-12-19T10:44:25.375Z,62.82
2018-12-19T10:46:52.795Z,62.17
2018-12-19T10:49:21.329Z,62.01
2018-12-19T10:51:48.721Z,62.09
2018-12-19T10:54:16.167Z,62.04
2018-12-19T10:56:43.689Z,62.04
2018-12-19T10:59:11.083Z,62.64
2018-12-19T11:01:38.493Z,62.26
2018-12-19T11:04:06.072Z,62.37
2018-12-19T11:06:34.175Z,62.38
2018-12-19T11:09:01.875Z,62.28
2018-12-19T11:11:32.278Z,62.52
2018-12-19T11:13:59.005Z,62.25
2018-12-19T11:16:26.400Z,62.45
2018-12-19T11:18:53.987Z,62.36
2018-12-19T11:21:21.433Z,62.41
2018-12-19T11:23:48.909Z,62.47
2018-12-19T11:26:16.455Z,62.59
2018-12-19T11:28:43.852Z,62.60
2018-12-19T11:31:11.257Z,62.29
2018-12-19T11:33:39.031Z,62.28
2018-12-19T11:36:06.627Z,62.01
2018-12-19T11:38:34.221Z,62.34
2018-12-19T11:41:02.835Z,62.04
2018-12-19T11:43:30.516Z,62.23
2018-12-19T11:45:58.099Z,61.96
2018-12-19T11:48:25.719Z,62.03
2018-12-19T11:50:53.107Z,62.17
2018-12-19T11:53:20.514Z,62.12
2018-12-19T11:55:48.194Z,62.27
2018-12-19T11:58:16.367Z,62.25
2018-12-19T12:00:43.759Z,62.12
2018-12-19T12:03:11.379Z,62.17
2018-12-19T12:05:38.776Z,62.46
2018-12-19T12:08:06.175Z,62.21
2018-12-19T12:10:33.751Z,62.16
2018-12-19T12:13:01.151Z,61.96
2018-12-19T12:15:28.553Z,62.39
2018-12-19T12:17:56.067Z,62.48
2018-12-19T12:20:23.572Z,62.04
2018-12-19T12:22:50.971Z,62.34
2018-12-19T12:25:18.393Z,62.42
2018-12-19T12:27:46.400Z,62.34
2018-12-19T12:30:13.784Z,61.77
2018-12-19T12:32:41.380Z,61.76
2018-12-19T12:35:08.903Z,61.74
2018-12-19T12:37:36.924Z,61.49
2018-12-19T12:40:07.229Z,62.00
2018-12-19T12:42:34.684Z,61.83
2018-12-19T12:45:02.440Z,61.63
2018-12-19T12:47:30.098Z,61.72
2018-12-19T12:49:57.697Z,61.71
2018-12-19T12:52:25.102Z,62.02
2018-12-19T12:54:52.684Z,61.96
2018-12-19T12:57:20.290Z,61.51
2018-12-19T12:59:47.691Z,61.69
2018-12-19T13:02:15.256Z,61.67
2018-12-19T13:04:42.657Z,61.65
2018-12-19T13:07:10.043Z,61.59
2018-12-19T13:09:37.736Z,61.43
2018-12-19T13:12:05.156Z,61.36
2018-12-19T13:14:32.625Z,61.50
2018-12-19T13:17:00.428Z,61.68
2018-12-19T13:19:28.624Z,61.52
2018-12-19T13:21:56.016Z,61.44
2018-12-19T13:24:23.576Z,61.25
2018-12-19T13:26:50.960Z,61.34
2018-12-19T13:29:18.357Z,61.68
2018-12-19T13:31:46.148Z,61.45
2018-12-19T13:34:14.158Z,61.39
2018-12-19T13:36:41.852Z,61.66
2018-12-19T13:39:09.544Z,61.48
2018-12-19T13:41:36.947Z,61.81
2018-12-19T13:44:04.612Z,61.66
2018-12-19T13:46:32.327Z,61.77
2018-12-19T13:48:59.728Z,61.80
2018-12-19T13:51:27.128Z,62.12
2018-12-19T13:53:54.724Z,62.49
2018-12-19T13:56:22.128Z,62.89
2018-12-19T13:58:49.887Z,63.17
2018-12-19T14:01:17.503Z,63.55
2018-12-19T14:03:44.907Z,63.67
2018-12-19T14:06:12.302Z,64.24
2018-12-19T14:08:40.773Z,63.99
2018-12-19T14:11:08.167Z,64.42
2018-12-19T14:13:35.565Z,63.91
2018-12-19T14:16:03.160Z,63.63
2018-12-19T14:18:30.551Z,63.28
2018-12-19T14:20:57.957Z,63.39
2018-12-19T14:23:25.426Z,62.84
2018-12-19T14:25:52.828Z,62.78
2018-12-19T14:28:20.223Z,62.86
2018-12-19T14:30:47.667Z,63.04
2018-12-19T14:33:15.067Z,63.61
2018-12-19T14:35:42.534Z,63.50
2018-12-19T14:38:10.077Z,63.70
2018-12-19T14:40:39.315Z,63.69
2018-12-19T14:43:06.725Z,63.84
2018-12-19T14:45:34.412Z,64.40
2018-12-19T14:48:01.813Z,64.45
2018-12-19T14:50:29.208Z,64.66
2018-12-19T14:52:56.973Z,64.65
2018-12-19T14:55:24.582Z,65.28
2018-12-19T14:57:51.985Z,65.18
2018-12-19T15:00:19.738Z,65.54
2018-12-19T15:02:47.138Z,65.31
2018-12-19T15:05:14.531Z,65.64
2018-12-19T15:07:42.221Z,65.80
2018-12-19T15:10:09.741Z,65.55
2018-12-19T15:12:37.525Z,65.53
2018-12-19T15:15:07.202Z,65.59
2018-12-19T15:17:34.677Z,65.77
2018-12-19T15:20:02.077Z,65.91
2018-12-19T15:22:29.517Z,65.73
2018-12-19T15:24:56.923Z,66.04
2018-12-19T15:27:24.383Z,65.68
2018-12-19T15:29:51.814Z,65.77
2018-12-19T15:32:19.220Z,65.27
2018-12-19T15:34:47.328Z,64.99
2018-12-19T15:37:14.963Z,64.51
2018-12-19T15:39:42.445Z,64.29
2018-12-19T15:42:09.827Z,64.16
2018-12-19T15:44:37.343Z,64.11
2018-12-19T15:47:04.739Z,64.32
2018-12-19T15:49:32.135Z,63.89
2018-12-19T15:51:59.716Z,63.97
2018-12-19T15:54:27.117Z,63.92
2018-12-19T15:56:54.529Z,64.26
2018-12-19T15:59:22.081Z,63.97
2018-12-19T16:01:49.485Z,64.23
2018-12-19T16:04:16.886Z,64.22
2018-12-19T16:06:44.674Z,63.86
2018-12-19T16:09:12.061Z,63.86
2018-12-19T16:11:40.345Z,64.18
2018-12-19T16:14:07.856Z,64.10
2018-12-19T16:16:35.250Z,64.32
2018-12-19T16:19:02.651Z,64.59
2018-12-19T16:21:30.449Z,64.75
2018-12-19T16:23:58.777Z,64.76
2018-12-19T16:26:26.169Z,64.96
2018-12-19T16:28:53.664Z,65.04
2018-12-19T16:31:21.059Z,65.76
2018-12-19T16:33:48.486Z,65.52
2018-12-19T16:36:16.219Z,66.23
2018-12-19T16:38:43.623Z,66.11
2018-12-19T16:41:11.027Z,66.24
2018-12-19T16:43:38.768Z,66.35
2018-12-19T16:46:06.287Z,66.99
2018-12-19T16:48:33.757Z,67.16
2018-12-19T16:51:01.197Z,67.26
2018-12-19T16:53:28.600Z,67.62
2018-12-19T16:55:56.803Z,67.57
2018-12-19T16:58:24.327Z,67.35
2018-12-19T17:00:51.741Z,68.11
2018-12-19T17:03:19.333Z,67.76
2018-12-19T17:05:47.184Z,67.92
2018-12-19T17:08:14.579Z,67.31
2018-12-19T17:10:42.019Z,67.30
2018-12-19T17:13:09.582Z,66.91
2018-12-19T17:15:37.367Z,66.87
2018-12-19T17:18:04.755Z,66.21
2018-12-19T17:20:33.302Z,66.35
2018-12-19T17:23:00.968Z,65.92
2018-12-19T17:25:28.365Z,65.60
2018-12-19T17:27:56.115Z,65.75
2018-12-19T17:30:23.511Z,65.47
2018-12-19T17:32:50.921Z,64.96
2018-12-19T17:35:18.633Z,64.95
2018-12-19T17:37:46.215Z,65.00
2018-12-19T17:40:13.625Z,64.57
2018-12-19T17:42:41.075Z,64.84
2018-12-19T17:45:08.474Z,64.55
2018-12-19T17:47:36.475Z,64.82
2018-12-19T17:50:05.458Z,64.96
2018-12-19T17:52:32.842Z,65.15
2018-12-19T17:55:00.246Z,65.21
2018-12-19T17:57:27.700Z,65.04
2018-12-19T17:59:55.122Z,64.91
2018-12-19T18:02:22.988Z,64.90
2018-12-19T18:04:50.589Z,65.05
2018-12-19T18:07:18.358Z,65.02
2018-12-19T18:09:45.936Z,64.74
2018-12-19T18:12:13.360Z,64.93
2018-12-19T18:14:40.828Z,64.89
2018-12-19T18:17:08.616Z,65.34
2018-12-19T18:19:36.134Z,65.19
2018-12-19T18:22:03.546Z,65.67
2018-12-19T18:24:30.941Z,65.35
2018-12-19T18:26:58.388Z,65.68
2018-12-19T18:29:25.793Z,66.07
2018-12-19T18:31:53.284Z,65.96
2018-12-19T18:34:20.986Z,65.68
2018-12-19T18:36:49.352Z,65.50
2018-12-19T18:39:16.821Z,65.96
2018-12-19T18:41:44.523Z,66.15
2018-12-19T18:44:11.947Z,66.29
2018-12-19T18:46:39.333Z,66.08
2018-12-19T18:49:06.847Z,66.70
2018-12-19T18:51:34.315Z,67.04
2018-12-19T18:54:02.607Z,67.25
2018-12-19T18:56:30.317Z,67.32
2018-12-19T18:58:57.772Z,68.15
2018-12-19T19:01:25.261Z,67.94
2018-12-19T19:03:52.826Z,68.44
2018-12-19T19:06:20.273Z,68.18
2018-12-19T19:08:47.762Z,68.93
2018-12-19T19:11:15.604Z,69.34
2018-12-19T19:13:44.042Z,68.69
2018-12-19T19:16:11.544Z,69.14
2018-12-19T19:18:38.991Z,69.13
2018-12-19T19:21:06.623Z,69.35
2018-12-19T19:23:34.033Z,69.02
2018-12-19T19:26:01.676Z,68.88
2018-12-19T19:28:29.092Z,68.77
2018-12-19T19:30:56.485Z,68.66
2018-12-19T19:33:24.240Z,68.36
2018-12-19T19:35:51.957Z,68.05
2018-12-19T19:38:19.460Z,67.61
2018-12-19T19:40:46.978Z,67.61
2018-12-19T19:43:14.372Z,67.65
2018-12-19T19:45:41.784Z,67.77
2018-12-19T19:48:09.600Z,67.91
2018-12-19T19:50:37.261Z,67.92
2018-12-19T19:53:04.730Z,67.49
2018-12-19T19:55:32.281Z,68.01
2018-12-19T19:57:59.711Z,68.07
2018-12-19T20:00:28.668Z,67.80
2018-12-19T20:02:56.201Z,67.66
2018-12-19T20:05:23.592Z,67.56
2018-12-19T20:07:51.013Z,67.56
2018-12-19T20:10:18.511Z,67.30
2018-12-19T20:12:45.934Z,67.54
2018-12-19T20:15:13.845Z,66.96
2018-12-19T20:17:41.720Z,66.95
2018-12-19T20:20:09.108Z,67.22
2018-12-19T20:22:36.505Z,66.84
2018-12-19T20:25:04.388Z,66.88
2018-12-19T20:27:31.868Z,66.63
2018-12-19T20:29:59.317Z,67.08
2018-12-19T20:32:27.048Z,67.10
2018-12-19T20:34:54.447Z,67.32
2018-12-19T20:37:21.886Z,67.36
2018-12-19T20:39:49.468Z,67.25
2018-12-19T20:42:16.864Z,67.11
2018-12-19T20:44:44.328Z,67.14
2018-12-19T20:47:11.748Z,67.53
2018-12-19T20:49:39.148Z,67.09
2018-12-19T20:52:06.563Z,67.52
2018-12-19T20:54:34.120Z,67.31
2018-12-19T20:57:01.618Z,67.05
2018-12-19T20:59:29.566Z,67.32
2018-12-19T21:01:57.302Z,67.74
2018-12-19T21:04:24.767Z,67.87
2018-12-19T21:06:52.173Z,68.23
2018-12-19T21:09:19.858Z,67.98
2018-12-19T21:11:47.252Z,68.12
2018-12-19T21:14:15.115Z,68.21
2018-12-19T21:16:48.388Z,68.28
2018-12-19T21:19:15.842Z,68.20
2018-12-19T21:21:43.765Z,68.75
2018-12-19T21:24:11.272Z,68.70
2018-12-19T21:26:38.685Z,68.45
2018-12-19T21:29:06.089Z,68.53
2018-12-19T21:31:33.529Z,68.29
2018-12-19T21:34:01.023Z,68.18
2018-12-19T21:36:28.419Z,67.93
2018-12-19T21:38:56.230Z,67.52
2018-12-19T21:41:23.623Z,67.47
2018-12-19T21:43:53.881Z,67.50
2018-12-19T21:46:20.761Z,67.34
2018-12-19T21:48:48.502Z,67.08
2018-12-19T21:51:16.085Z,67.06
2018-12-19T21:53:43.546Z,67.10
2018-12-19T21:56:10.939Z,67.15
2018-12-19T21:58:38.687Z,66.92
2018-12-19T22:01:06.306Z,67.00
2018-12-19T22:03:33.797Z,67.10
2018-12-19T22:06:01.687Z,67.68
2018-12-19T22:08:29.367Z,67.72
2018-12-19T22:10:57.189Z,68.04
2018-12-19T22:13:24.750Z,68.36
2018-12-19T22:15:52.270Z,68.02
2018-12-19T22:21:29.574Z,68.11
2018-12-19T22:23:56.986Z,67.60
2018-12-19T22:26:24.467Z,67.89
2018-12-19T22:28:52.085Z,68.08
2018-12-19T22:31:19.610Z,67.76
2018-12-19T22:33:47.208Z,67.89
2018-12-19T22:36:14.950Z,67.81
2018-12-19T22:38:42.551Z,67.77
2018-12-19T22:41:09.948Z,67.79
2018-12-19T22:43:37.503Z,67.78
2018-12-19T22:46:05.008Z,68.06
2018-12-19T22:48:32.629Z,68.34
2018-12-19T22:51:00.398Z,68.76
2018-12-19T22:53:27.901Z,68.62
2018-12-19T22:55:55.412Z,68.50
2018-12-19T22:58:22.933Z,68.65
2018-12-19T23:00:56.361Z,69.29
2018-12-19T23:03:25.990Z,68.94
2018-12-19T23:05:53.403Z,69.01
2018-12-19T23:08:21.512Z,69.29
2018-12-19T23:10:49.500Z,69.33
2018-12-19T23:13:17.109Z,69.08
2018-12-19T23:15:44.544Z,69.18
2018-12-19T23:18:17.832Z,69.22
2018-12-19T23:20:45.436Z,69.18
2018-12-19T23:23:12.925Z,69.45
2018-12-19T23:25:40.518Z,69.10
2018-12-19T23:28:07.966Z,69.54
2018-12-19T23:30:35.477Z,69.37
2018-12-19T23:33:03.415Z,69.11
2018-12-19T23:35:31.155Z,69.55
2018-12-19T23:37:58.968Z,69.35
2018-12-19T23:40:26.725Z,69.08
2018-12-19T23:42:55.270Z,69.20
2018-12-19T23:45:22.968Z,69.63
2018-12-19T23:47:50.600Z,69.38
2018-12-19T23:50:17.989Z,69.34
2018-12-19T23:52:45.433Z,69.50
2018-12-19T23:55:13.120Z,69.09
2018-12-19T23:57:40.717Z,69.33
